Ausable Chasm, NY

6:16 AM EDT on August 27, 2014 (GMT -0400)
Plattsburgh International | Change Station
CLOSE
Current Station
Airport
Location: Plattsburgh,
Elevation: 236 ft
Nearby Weather Stations

Elev 236 ft 44.65 °N, 73.47 °W | Updated 23 minutes ago

Mostly Cloudy
Mostly Cloudy
67 °F
Feels Like 67 °F
N
0
Wind Variable Wind from North

Today
High -- | Low -- °F
--% Chance of Precip.
Yesterday
High -- | Low -- °F
Precip. -- in
6:10 AM 7:39 PM
Waxing Crescent, 3% visible
Pressure 29.92 in
Visibility 10.0 miles
Clouds Few 4800 ft
Mostly Cloudy 6000 ft
Dew Point 63 °F
Humidity 87%
Rainfall 0.00 in
Snow Depth Not available.
UV 0 out of 12
Pollen 8.40 out of 12
Air Quality Not available.
Flu Activity Not available.
METAR KPBG 270953Z AUTO 00000KT 10SM FEW048 BKN060 19/17 A2992 RMK AO2 SLP131 T01940172

More Conditions Fewer Conditions

Pressure 29.92 in
Visibility 10.0 miles
Clouds Few 4800 ft
Mostly Cloudy 6000 ft
Dew Point 63 °F
Humidity 87%
Rainfall 0.00 in
Snow Depth Not available.
UV 0 out of 12
Pollen 8.40 out of 12
Air Quality Not available.
Flu Activity Not available.
METAR KPBG 270953Z AUTO 00000KT 10SM FEW048 BKN060 19/17 A2992 RMK AO2 SLP131 T01940172

More Conditions Fewer Conditions

10-Day Weather Forecast

Almanac

Astronomy

Aug. 27, 2014 Rise Set
Actual Time 6:10 AM EDT 7:39 PM EDT
Civil Twilight 5:40 AM EDT 8:09 PM EDT
Nautical Twilight 5:03 AM EDT 8:46 PM EDT
Astronomical Twilight 4:23 AM EDT 9:25 PM EDT
Moon 8:10 AM EDT 8:22 PM EDT
Length of Visible Light 14h 29m
Length of Day
13h 28m
Tomorrow will be 2m 57s shorter.
Waxing Crescent, 3% of the Moon is Illuminated
Today
Waxing Crescent
Sep 2
First Quarter
Sep 8
Full
Sep 15
Last Quarter
Sep 24
New

Today's Extremes

State Highs State Lows

Community

WunderPhotos

Upload Photos

1,747,661 photos uploaded!

Nearby

Air Quality

  Air Quality AQ Index Pollutant
Wednesday Good
OZONE
Wednesday Good
PM2.5

Snow Depth

Station Depth Elevation
No new snow has been reported.

Earthquake Activity

City Distance Mag. Time & Date
No recent earthquake activity has been reported nearby.
Minimum magnitude displayed is 2.5.

Coastal Water Temperatures

Place Temperature
No Stations Reporting

Nearby Weather Stations